sensor_id;sensor_type;location;lat;lon;timestamp;P1;durP1;ratioP1;P2;durP2;ratioP2
1400;SDS011;46518;48.842;8.926;2022-11-30T00:00:09;24.75;;;15.88;;
1400;SDS011;46518;48.842;8.926;2022-11-30T00:02:39;22.27;;;15.65;;
1400;SDS011;46518;48.842;8.926;2022-11-30T00:05:08;24.90;;;17.77;;
1400;SDS011;46518;48.842;8.926;2022-11-30T00:07:41;23.13;;;16.92;;
1400;SDS011;46518;48.842;8.926;2022-11-30T00:10:10;24.77;;;17.15;;
1400;SDS011;46518;48.842;8.926;2022-11-30T00:12:39;28.02;;;16.67;;
1400;SDS011;46518;48.842;8.926;2022-11-30T00:15:09;23.00;;;15.05;;
1400;SDS011;46518;48.842;8.926;2022-11-30T00:17:39;23.20;;;15.55;;
1400;SDS011;46518;48.842;8.926;2022-11-30T00:20:08;31.08;;;17.60;;
1400;SDS011;46518;48.842;8.926;2022-11-30T00:22:37;29.27;;;18.75;;
1400;SDS011;46518;48.842;8.926;2022-11-30T00:25:07;30.63;;;18.42;;
1400;SDS011;46518;48.842;8.926;2022-11-30T00:27:36;27.67;;;15.90;;
1400;SDS011;46518;48.842;8.926;2022-11-30T00:30:23;31.92;;;19.05;;
1400;SDS011;46518;48.842;8.926;2022-11-30T00:32:54;24.92;;;17.00;;
1400;SDS011;46518;48.842;8.926;2022-11-30T00:35:23;28.55;;;18.98;;
1400;SDS011;46518;48.842;8.926;2022-11-30T00:37:51;30.38;;;18.52;;
1400;SDS011;46518;48.842;8.926;2022-11-30T00:40:21;32.40;;;20.40;;
1400;SDS011;46518;48.842;8.926;2022-11-30T00:42:49;27.30;;;17.80;;
1400;SDS011;46518;48.842;8.926;2022-11-30T00:45:17;29.38;;;18.20;;
1400;SDS011;46518;48.842;8.926;2022-11-30T00:47:46;30.45;;;17.10;;
1400;SDS011;46518;48.842;8.926;2022-11-30T00:50:14;26.52;;;17.77;;
1400;SDS011;46518;48.842;8.926;2022-11-30T00:52:43;27.65;;;17.67;;
1400;SDS011;46518;48.842;8.926;2022-11-30T00:55:11;35.30;;;16.65;;
1400;SDS011;46518;48.842;8.926;2022-11-30T00:57:41;24.13;;;15.95;;
1400;SDS011;46518;48.842;8.926;2022-11-30T01:00:09;24.00;;;16.05;;
1400;SDS011;46518;48.842;8.926;2022-11-30T01:02:38;32.13;;;18.13;;
1400;SDS011;46518;48.842;8.926;2022-11-30T01:05:07;24.00;;;15.25;;
1400;SDS011;46518;48.842;8.926;2022-11-30T01:07:35;20.98;;;14.15;;
1400;SDS011;46518;48.842;8.926;2022-11-30T01:10:05;26.40;;;16.25;;
1400;SDS011;46518;48.842;8.926;2022-11-30T01:12:35;25.00;;;15.57;;
1400;SDS011;46518;48.842;8.926;2022-11-30T01:15:23;33.50;;;18.48;;
1400;SDS011;46518;48.842;8.926;2022-11-30T01:18:01;28.48;;;15.63;;
1400;SDS011;46518;48.842;8.926;2022-11-30T01:20:44;25.60;;;15.20;;
1400;SDS011;46518;48.842;8.926;2022-11-30T01:23:26;23.48;;;14.10;;
1400;SDS011;46518;48.842;8.926;2022-11-30T01:26:05;24.83;;;16.25;;
1400;SDS011;46518;48.842;8.926;2022-11-30T01:28:34;26.23;;;16.42;;
1400;SDS011;46518;48.842;8.926;2022-11-30T01:31:09;24.02;;;16.27;;
1400;SDS011;46518;48.842;8.926;2022-11-30T01:33:40;25.48;;;16.42;;
1400;SDS011;46518;48.842;8.926;2022-11-30T01:36:12;30.98;;;16.15;;
1400;SDS011;46518;48.842;8.926;2022-11-30T01:38:45;30.63;;;17.25;;
1400;SDS011;46518;48.842;8.926;2022-11-30T01:41:17;29.77;;;16.40;;
1400;SDS011;46518;48.842;8.926;2022-11-30T01:43:51;25.08;;;18.10;;
1400;SDS011;46518;48.842;8.926;2022-11-30T01:46:26;28.05;;;17.05;;
1400;SDS011;46518;48.842;8.926;2022-11-30T01:49:04;25.58;;;17.10;;
1400;SDS011;46518;48.842;8.926;2022-11-30T01:51:43;26.90;;;16.83;;
1400;SDS011;46518;48.842;8.926;2022-11-30T01:54:20;30.17;;;17.90;;
1400;SDS011;46518;48.842;8.926;2022-11-30T01:56:56;28.27;;;16.70;;
1400;SDS011;46518;48.842;8.926;2022-11-30T01:59:32;30.50;;;19.35;;
1400;SDS011;46518;48.842;8.926;2022-11-30T02:02:07;27.88;;;18.15;;
1400;SDS011;46518;48.842;8.926;2022-11-30T02:04:39;29.67;;;20.90;;
1400;SDS011;46518;48.842;8.926;2022-11-30T02:07:11;26.98;;;16.70;;
1400;SDS011;46518;48.842;8.926;2022-11-30T02:09:42;28.05;;;18.88;;
1400;SDS011;46518;48.842;8.926;2022-11-30T02:12:16;29.38;;;18.25;;
1400;SDS011;46518;48.842;8.926;2022-11-30T02:14:56;28.25;;;19.42;;
1400;SDS011;46518;48.842;8.926;2022-11-30T02:17:35;27.50;;;18.17;;
1400;SDS011;46518;48.842;8.926;2022-11-30T02:26:33;31.13;;;19.83;;
1400;SDS011;46518;48.842;8.926;2022-11-30T02:29:18;31.00;;;19.40;;
1400;SDS011;46518;48.842;8.926;2022-11-30T02:31:53;28.65;;;19.70;;
1400;SDS011;46518;48.842;8.926;2022-11-30T02:34:37;29.08;;;19.55;;
1400;SDS011;46518;48.842;8.926;2022-11-30T02:37:11;31.50;;;18.92;;
1400;SDS011;46518;48.842;8.926;2022-11-30T02:39:45;29.17;;;17.67;;
1400;SDS011;46518;48.842;8.926;2022-11-30T02:42:16;30.70;;;19.70;;
1400;SDS011;46518;48.842;8.926;2022-11-30T02:44:49;31.20;;;19.35;;
1400;SDS011;46518;48.842;8.926;2022-11-30T02:47:22;30.08;;;20.10;;
1400;SDS011;46518;48.842;8.926;2022-11-30T02:50:00;28.40;;;18.27;;
1400;SDS011;46518;48.842;8.926;2022-11-30T02:52:35;27.80;;;18.20;;
1400;SDS011;46518;48.842;8.926;2022-11-30T02:55:08;27.42;;;17.33;;
1400;SDS011;46518;48.842;8.926;2022-11-30T02:57:40;22.25;;;17.42;;
1400;SDS011;46518;48.842;8.926;2022-11-30T03:00:21;26.02;;;17.13;;
1400;SDS011;46518;48.842;8.926;2022-11-30T03:02:52;26.23;;;16.42;;
1400;SDS011;46518;48.842;8.926;2022-11-30T03:05:24;22.98;;;16.05;;
1400;SDS011;46518;48.842;8.926;2022-11-30T03:07:55;24.83;;;16.67;;
1400;SDS011;46518;48.842;8.926;2022-11-30T03:10:26;24.50;;;18.05;;
1400;SDS011;46518;48.842;8.926;2022-11-30T03:12:57;26.48;;;18.92;;
1400;SDS011;46518;48.842;8.926;2022-11-30T03:15:30;23.58;;;16.73;;
1400;SDS011;46518;48.842;8.926;2022-11-30T03:18:02;27.80;;;18.27;;
1400;SDS011;46518;48.842;8.926;2022-11-30T03:20:38;24.88;;;16.95;;
1400;SDS011;46518;48.842;8.926;2022-11-30T03:23:10;24.45;;;17.00;;
1400;SDS011;46518;48.842;8.926;2022-11-30T03:25:41;25.27;;;18.52;;
1400;SDS011;46518;48.842;8.926;2022-11-30T03:28:21;27.88;;;16.50;;
1400;SDS011;46518;48.842;8.926;2022-11-30T03:30:53;20.45;;;17.13;;
1400;SDS011;46518;48.842;8.926;2022-11-30T03:33:24;25.83;;;16.75;;
1400;SDS011;46518;48.842;8.926;2022-11-30T03:35:59;20.90;;;15.68;;
1400;SDS011;46518;48.842;8.926;2022-11-30T03:38:31;24.63;;;16.55;;
1400;SDS011;46518;48.842;8.926;2022-11-30T03:41:03;23.15;;;15.95;;
1400;SDS011;46518;48.842;8.926;2022-11-30T03:43:36;24.13;;;16.85;;
1400;SDS011;46518;48.842;8.926;2022-11-30T03:46:09;24.88;;;16.70;;
1400;SDS011;46518;48.842;8.926;2022-11-30T03:48:43;25.25;;;17.08;;
1400;SDS011;46518;48.842;8.926;2022-11-30T03:51:15;25.17;;;17.90;;
1400;SDS011;46518;48.842;8.926;2022-11-30T03:53:46;22.00;;;16.73;;
1400;SDS011;46518;48.842;8.926;2022-11-30T03:56:18;23.67;;;16.77;;
1400;SDS011;46518;48.842;8.926;2022-11-30T03:58:49;24.48;;;16.92;;
1400;SDS011;46518;48.842;8.926;2022-11-30T04:01:22;26.48;;;18.35;;
1400;SDS011;46518;48.842;8.926;2022-11-30T04:03:55;28.08;;;18.30;;
1400;SDS011;46518;48.842;8.926;2022-11-30T04:06:26;25.67;;;18.95;;
1400;SDS011;46518;48.842;8.926;2022-11-30T04:08:58;28.88;;;18.70;;
1400;SDS011;46518;48.842;8.926;2022-11-30T04:11:29;29.52;;;20.20;;
1400;SDS011;46518;48.842;8.926;2022-11-30T04:14:00;26.00;;;18.58;;
1400;SDS011;46518;48.842;8.926;2022-11-30T04:16:33;25.98;;;18.42;;
1400;SDS011;46518;48.842;8.926;2022-11-30T04:19:05;26.98;;;18.65;;
1400;SDS011;46518;48.842;8.926;2022-11-30T04:21:36;26.98;;;19.50;;
1400;SDS011;46518;48.842;8.926;2022-11-30T04:24:07;30.23;;;19.30;;
1400;SDS011;46518;48.842;8.926;2022-11-30T04:26:39;29.08;;;19.25;;
1400;SDS011;46518;48.842;8.926;2022-11-30T04:29:10;26.08;;;18.23;;
1400;SDS011;46518;48.842;8.926;2022-11-30T04:31:43;29.42;;;18.75;;
1400;SDS011;46518;48.842;8.926;2022-11-30T04:34:15;26.35;;;17.70;;
1400;SDS011;46518;48.842;8.926;2022-11-30T04:36:47;24.20;;;17.52;;
1400;SDS011;46518;48.842;8.926;2022-11-30T04:39:19;30.10;;;19.38;;
1400;SDS011;46518;48.842;8.926;2022-11-30T04:41:50;25.55;;;17.25;;
1400;SDS011;46518;48.842;8.926;2022-11-30T04:44:21;25.42;;;16.95;;
1400;SDS011;46518;48.842;8.926;2022-11-30T04:46:53;26.58;;;18.08;;
1400;SDS011;46518;48.842;8.926;2022-11-30T04:49:24;26.90;;;17.30;;
1400;SDS011;46518;48.842;8.926;2022-11-30T04:51:55;21.65;;;16.00;;
1400;SDS011;46518;48.842;8.926;2022-11-30T04:54:28;20.77;;;14.90;;
1400;SDS011;46518;48.842;8.926;2022-11-30T04:56:59;22.70;;;16.55;;
1400;SDS011;46518;48.842;8.926;2022-11-30T04:59:30;26.30;;;16.42;;
1400;SDS011;46518;48.842;8.926;2022-11-30T05:02:02;25.38;;;16.35;;
1400;SDS011;46518;48.842;8.926;2022-11-30T05:04:33;23.45;;;15.07;;
1400;SDS011;46518;48.842;8.926;2022-11-30T05:07:03;25.52;;;15.70;;
1400;SDS011;46518;48.842;8.926;2022-11-30T05:09:34;22.33;;;15.93;;
1400;SDS011;46518;48.842;8.926;2022-11-30T05:12:05;23.02;;;15.20;;
1400;SDS011;46518;48.842;8.926;2022-11-30T05:14:35;22.77;;;15.77;;
1400;SDS011;46518;48.842;8.926;2022-11-30T05:17:08;29.50;;;18.33;;
1400;SDS011;46518;48.842;8.926;2022-11-30T05:19:40;24.88;;;15.82;;
1400;SDS011;46518;48.842;8.926;2022-11-30T05:22:11;25.58;;;15.50;;
1400;SDS011;46518;48.842;8.926;2022-11-30T05:24:42;21.52;;;16.65;;
1400;SDS011;46518;48.842;8.926;2022-11-30T05:27:14;26.20;;;16.98;;
1400;SDS011;46518;48.842;8.926;2022-11-30T05:29:49;24.20;;;17.67;;
1400;SDS011;46518;48.842;8.926;2022-11-30T05:32:22;22.55;;;16.73;;
1400;SDS011;46518;48.842;8.926;2022-11-30T05:34:54;23.65;;;16.83;;
1400;SDS011;46518;48.842;8.926;2022-11-30T05:37:26;21.23;;;15.30;;
1400;SDS011;46518;48.842;8.926;2022-11-30T05:39:57;23.73;;;16.27;;
1400;SDS011;46518;48.842;8.926;2022-11-30T05:42:29;22.42;;;15.32;;
1400;SDS011;46518;48.842;8.926;2022-11-30T05:44:59;21.98;;;16.02;;
1400;SDS011;46518;48.842;8.926;2022-11-30T05:47:31;19.67;;;15.55;;
1400;SDS011;46518;48.842;8.926;2022-11-30T05:50:02;23.02;;;16.52;;
1400;SDS011;46518;48.842;8.926;2022-11-30T05:52:33;18.88;;;13.30;;
1400;SDS011;46518;48.842;8.926;2022-11-30T05:55:04;23.45;;;15.98;;
1400;SDS011;46518;48.842;8.926;2022-11-30T05:57:36;22.17;;;18.67;;
1400;SDS011;46518;48.842;8.926;2022-11-30T06:00:07;23.30;;;16.42;;
1400;SDS011;46518;48.842;8.926;2022-11-30T06:02:42;25.13;;;17.83;;
1400;SDS011;46518;48.842;8.926;2022-11-30T06:05:13;20.48;;;16.27;;
1400;SDS011;46518;48.842;8.926;2022-11-30T06:07:44;24.75;;;16.55;;
1400;SDS011;46518;48.842;8.926;2022-11-30T06:10:15;21.65;;;16.30;;
1400;SDS011;46518;48.842;8.926;2022-11-30T06:12:54;21.70;;;17.05;;
1400;SDS011;46518;48.842;8.926;2022-11-30T06:15:48;22.80;;;16.25;;
1400;SDS011;46518;48.842;8.926;2022-11-30T06:18:25;21.00;;;15.65;;
1400;SDS011;46518;48.842;8.926;2022-11-30T06:20:58;26.77;;;16.90;;
1400;SDS011;46518;48.842;8.926;2022-11-30T06:23:33;19.40;;;14.95;;
1400;SDS011;46518;48.842;8.926;2022-11-30T06:26:05;19.95;;;15.38;;
1400;SDS011;46518;48.842;8.926;2022-11-30T06:28:37;23.75;;;14.88;;
1400;SDS011;46518;48.842;8.926;2022-11-30T06:31:14;18.08;;;13.90;;
1400;SDS011;46518;48.842;8.926;2022-11-30T06:33:47;19.13;;;14.13;;
1400;SDS011;46518;48.842;8.926;2022-11-30T06:36:19;18.27;;;14.48;;
1400;SDS011;46518;48.842;8.926;2022-11-30T06:38:51;21.83;;;15.63;;
1400;SDS011;46518;48.842;8.926;2022-11-30T06:41:24;20.48;;;14.23;;
1400;SDS011;46518;48.842;8.926;2022-11-30T06:43:55;18.85;;;13.70;;
1400;SDS011;46518;48.842;8.926;2022-11-30T06:46:26;18.20;;;12.95;;
1400;SDS011;46518;48.842;8.926;2022-11-30T06:48:59;17.65;;;13.43;;
1400;SDS011;46518;48.842;8.926;2022-11-30T06:51:30;14.85;;;12.90;;
1400;SDS011;46518;48.842;8.926;2022-11-30T06:54:02;16.05;;;12.93;;
1400;SDS011;46518;48.842;8.926;2022-11-30T06:56:33;15.75;;;11.68;;
1400;SDS011;46518;48.842;8.926;2022-11-30T06:59:08;15.43;;;12.80;;
1400;SDS011;46518;48.842;8.926;2022-11-30T07:01:39;16.60;;;13.00;;
1400;SDS011;46518;48.842;8.926;2022-11-30T07:04:12;17.08;;;11.77;;
1400;SDS011;46518;48.842;8.926;2022-11-30T07:06:43;17.80;;;13.45;;
1400;SDS011;46518;48.842;8.926;2022-11-30T07:09:15;16.95;;;13.43;;
1400;SDS011;46518;48.842;8.926;2022-11-30T07:11:46;14.27;;;11.63;;
1400;SDS011;46518;48.842;8.926;2022-11-30T07:14:14;15.98;;;12.07;;
1400;SDS011;46518;48.842;8.926;2022-11-30T07:16:42;17.40;;;13.27;;
1400;SDS011;46518;48.842;8.926;2022-11-30T07:19:13;13.50;;;11.50;;
1400;SDS011;46518;48.842;8.926;2022-11-30T07:21:45;17.10;;;12.35;;
1400;SDS011;46518;48.842;8.926;2022-11-30T07:24:15;21.05;;;14.35;;
1400;SDS011;46518;48.842;8.926;2022-11-30T07:39:36;17.02;;;12.20;;
1400;SDS011;46518;48.842;8.926;2022-11-30T07:42:04;19.98;;;13.20;;
1400;SDS011;46518;48.842;8.926;2022-11-30T07:44:33;19.27;;;12.52;;
1400;SDS011;46518;48.842;8.926;2022-11-30T07:47:01;17.23;;;13.52;;
1400;SDS011;46518;48.842;8.926;2022-11-30T07:49:30;18.83;;;12.52;;
1400;SDS011;46518;48.842;8.926;2022-11-30T07:51:58;18.40;;;13.75;;
1400;SDS011;46518;48.842;8.926;2022-11-30T07:54:30;21.05;;;15.05;;
1400;SDS011;46518;48.842;8.926;2022-11-30T07:56:59;21.65;;;12.60;;
1400;SDS011;46518;48.842;8.926;2022-11-30T07:59:28;18.88;;;13.02;;
1400;SDS011;46518;48.842;8.926;2022-11-30T08:01:56;17.15;;;11.88;;
1400;SDS011;46518;48.842;8.926;2022-11-30T08:04:26;21.27;;;13.45;;
1400;SDS011;46518;48.842;8.926;2022-11-30T08:06:54;17.00;;;11.65;;
1400;SDS011;46518;48.842;8.926;2022-11-30T08:09:23;17.65;;;12.45;;
1400;SDS011;46518;48.842;8.926;2022-11-30T08:11:51;18.10;;;12.20;;
1400;SDS011;46518;48.842;8.926;2022-11-30T08:14:21;16.65;;;12.05;;
1400;SDS011;46518;48.842;8.926;2022-11-30T08:16:49;19.23;;;12.88;;
1400;SDS011;46518;48.842;8.926;2022-11-30T08:19:18;16.75;;;14.02;;
1400;SDS011;46518;48.842;8.926;2022-11-30T08:21:46;18.70;;;13.70;;
1400;SDS011;46518;48.842;8.926;2022-11-30T08:24:15;17.35;;;12.02;;
1400;SDS011;46518;48.842;8.926;2022-11-30T08:26:44;20.90;;;14.02;;
1400;SDS011;46518;48.842;8.926;2022-11-30T08:29:12;17.95;;;14.13;;
1400;SDS011;46518;48.842;8.926;2022-11-30T08:31:42;16.40;;;12.45;;
1400;SDS011;46518;48.842;8.926;2022-11-30T08:34:11;20.50;;;13.70;;
1400;SDS011;46518;48.842;8.926;2022-11-30T08:36:40;17.02;;;13.52;;
1400;SDS011;46518;48.842;8.926;2022-11-30T08:39:16;17.05;;;12.95;;
1400;SDS011;46518;48.842;8.926;2022-11-30T08:41:45;17.05;;;13.63;;
1400;SDS011;46518;48.842;8.926;2022-11-30T08:44:13;19.40;;;13.73;;
1400;SDS011;46518;48.842;8.926;2022-11-30T08:46:43;18.27;;;13.27;;
1400;SDS011;46518;48.842;8.926;2022-11-30T08:49:19;16.67;;;13.00;;
1400;SDS011;46518;48.842;8.926;2022-11-30T08:51:51;19.63;;;13.23;;
1400;SDS011;46518;48.842;8.926;2022-11-30T08:54:43;17.15;;;12.13;;
1400;SDS011;46518;48.842;8.926;2022-11-30T08:57:13;17.13;;;11.70;;
1400;SDS011;46518;48.842;8.926;2022-11-30T08:59:41;18.42;;;13.32;;
1400;SDS011;46518;48.842;8.926;2022-11-30T09:02:12;19.25;;;13.65;;
1400;SDS011;46518;48.842;8.926;2022-11-30T09:04:45;21.65;;;13.50;;
1400;SDS011;46518;48.842;8.926;2022-11-30T09:07:16;24.25;;;14.77;;
1400;SDS011;46518;48.842;8.926;2022-11-30T09:09:45;21.63;;;14.80;;
1400;SDS011;46518;48.842;8.926;2022-11-30T09:12:14;22.58;;;15.18;;
1400;SDS011;46518;48.842;8.926;2022-11-30T09:14:42;23.00;;;14.48;;
1400;SDS011;46518;48.842;8.926;2022-11-30T09:17:19;19.70;;;13.38;;
1400;SDS011;46518;48.842;8.926;2022-11-30T09:19:49;17.70;;;13.10;;
1400;SDS011;46518;48.842;8.926;2022-11-30T09:22:17;19.65;;;13.73;;
1400;SDS011;46518;48.842;8.926;2022-11-30T09:24:49;20.20;;;14.80;;
1400;SDS011;46518;48.842;8.926;2022-11-30T09:27:17;22.35;;;15.13;;
1400;SDS011;46518;48.842;8.926;2022-11-30T09:30:08;24.58;;;14.85;;
1400;SDS011;46518;48.842;8.926;2022-11-30T09:32:38;22.05;;;13.93;;
1400;SDS011;46518;48.842;8.926;2022-11-30T09:35:08;22.27;;;16.02;;
1400;SDS011;46518;48.842;8.926;2022-11-30T09:37:52;20.95;;;16.10;;
1400;SDS011;46518;48.842;8.926;2022-11-30T09:40:20;26.55;;;16.67;;
1400;SDS011;46518;48.842;8.926;2022-11-30T09:42:50;24.02;;;15.65;;
1400;SDS011;46518;48.842;8.926;2022-11-30T09:45:29;23.08;;;15.70;;
1400;SDS011;46518;48.842;8.926;2022-11-30T09:48:15;24.60;;;15.80;;
1400;SDS011;46518;48.842;8.926;2022-11-30T09:50:52;19.90;;;14.70;;
1400;SDS011;46518;48.842;8.926;2022-11-30T09:53:24;26.70;;;17.95;;
1400;SDS011;46518;48.842;8.926;2022-11-30T09:56:01;22.67;;;15.93;;
1400;SDS011;46518;48.842;8.926;2022-11-30T09:58:47;28.63;;;17.10;;
1400;SDS011;46518;48.842;8.926;2022-11-30T10:01:21;23.75;;;16.20;;
1400;SDS011;46518;48.842;8.926;2022-11-30T10:03:51;24.17;;;16.85;;
1400;SDS011;46518;48.842;8.926;2022-11-30T10:06:22;26.88;;;16.45;;
1400;SDS011;46518;48.842;8.926;2022-11-30T10:09:00;34.30;;;24.30;;
1400;SDS011;46518;48.842;8.926;2022-11-30T10:11:44;36.38;;;22.73;;
1400;SDS011;46518;48.842;8.926;2022-11-30T10:14:26;31.48;;;21.65;;
1400;SDS011;46518;48.842;8.926;2022-11-30T10:17:10;27.88;;;17.90;;
1400;SDS011;46518;48.842;8.926;2022-11-30T10:19:57;27.05;;;16.77;;
1400;SDS011;46518;48.842;8.926;2022-11-30T10:22:37;23.38;;;16.67;;
1400;SDS011;46518;48.842;8.926;2022-11-30T10:25:18;25.65;;;17.95;;
1400;SDS011;46518;48.842;8.926;2022-11-30T10:27:49;24.05;;;14.90;;
1400;SDS011;46518;48.842;8.926;2022-11-30T10:30:19;20.42;;;15.05;;
1400;SDS011;46518;48.842;8.926;2022-11-30T10:32:50;24.15;;;15.48;;
1400;SDS011;46518;48.842;8.926;2022-11-30T10:35:25;26.52;;;15.90;;
1400;SDS011;46518;48.842;8.926;2022-11-30T10:38:02;23.60;;;16.15;;
1400;SDS011;46518;48.842;8.926;2022-11-30T10:40:38;26.02;;;16.00;;
1400;SDS011;46518;48.842;8.926;2022-11-30T10:43:14;25.75;;;15.57;;
1400;SDS011;46518;48.842;8.926;2022-11-30T10:45:49;21.00;;;14.70;;
1400;SDS011;46518;48.842;8.926;2022-11-30T10:48:19;28.92;;;16.77;;
1400;SDS011;46518;48.842;8.926;2022-11-30T10:50:58;21.10;;;14.90;;
1400;SDS011;46518;48.842;8.926;2022-11-30T10:53:29;27.55;;;16.73;;
1400;SDS011;46518;48.842;8.926;2022-11-30T10:55:59;27.08;;;17.52;;
1400;SDS011;46518;48.842;8.926;2022-11-30T10:58:33;24.95;;;16.45;;
1400;SDS011;46518;48.842;8.926;2022-11-30T11:01:05;26.75;;;16.90;;
1400;SDS011;46518;48.842;8.926;2022-11-30T11:03:35;22.33;;;14.63;;
1400;SDS011;46518;48.842;8.926;2022-11-30T11:06:06;23.60;;;16.02;;
1400;SDS011;46518;48.842;8.926;2022-11-30T11:08:41;25.20;;;15.75;;
1400;SDS011;46518;48.842;8.926;2022-11-30T11:11:25;22.55;;;14.70;;
1400;SDS011;46518;48.842;8.926;2022-11-30T11:14:06;21.08;;;15.30;;
1400;SDS011;46518;48.842;8.926;2022-11-30T11:16:52;22.45;;;13.63;;
1400;SDS011;46518;48.842;8.926;2022-11-30T11:19:31;20.00;;;14.02;;
1400;SDS011;46518;48.842;8.926;2022-11-30T11:22:05;25.65;;;16.70;;
1400;SDS011;46518;48.842;8.926;2022-11-30T11:24:41;19.25;;;13.63;;
1400;SDS011;46518;48.842;8.926;2022-11-30T11:27:18;26.98;;;17.10;;
1400;SDS011;46518;48.842;8.926;2022-11-30T11:29:59;21.30;;;15.82;;
1400;SDS011;46518;48.842;8.926;2022-11-30T11:32:56;25.33;;;17.20;;
1400;SDS011;46518;48.842;8.926;2022-11-30T11:35:32;20.38;;;13.95;;
1400;SDS011;46518;48.842;8.926;2022-11-30T11:38:07;18.88;;;14.68;;
1400;SDS011;46518;48.842;8.926;2022-11-30T11:40:55;21.48;;;15.68;;
1400;SDS011;46518;48.842;8.926;2022-11-30T11:43:26;21.75;;;16.77;;
1400;SDS011;46518;48.842;8.926;2022-11-30T11:45:57;23.27;;;15.30;;
1400;SDS011;46518;48.842;8.926;2022-11-30T11:48:29;23.60;;;19.25;;
1400;SDS011;46518;48.842;8.926;2022-11-30T11:51:01;21.42;;;15.98;;
1400;SDS011;46518;48.842;8.926;2022-11-30T11:53:59;23.92;;;16.60;;
1400;SDS011;46518;48.842;8.926;2022-11-30T11:56:32;22.88;;;16.17;;
1400;SDS011;46518;48.842;8.926;2022-11-30T11:59:02;22.10;;;16.30;;
1400;SDS011;46518;48.842;8.926;2022-11-30T12:01:41;21.83;;;16.63;;
1400;SDS011;46518;48.842;8.926;2022-11-30T12:04:21;21.35;;;15.07;;
1400;SDS011;46518;48.842;8.926;2022-11-30T12:07:04;25.85;;;17.55;;
1400;SDS011;46518;48.842;8.926;2022-11-30T12:09:49;24.50;;;17.17;;
1400;SDS011;46518;48.842;8.926;2022-11-30T12:12:53;21.88;;;17.08;;
1400;SDS011;46518;48.842;8.926;2022-11-30T12:15:43;23.88;;;16.65;;
1400;SDS011;46518;48.842;8.926;2022-11-30T12:18:21;19.42;;;15.45;;
1400;SDS011;46518;48.842;8.926;2022-11-30T12:21:12;21.77;;;16.25;;
1400;SDS011;46518;48.842;8.926;2022-11-30T12:23:48;21.73;;;16.08;;
1400;SDS011;46518;48.842;8.926;2022-11-30T12:26:38;22.80;;;14.52;;
1400;SDS011;46518;48.842;8.926;2022-11-30T12:29:15;19.23;;;13.18;;
1400;SDS011;46518;48.842;8.926;2022-11-30T12:34:47;18.15;;;11.68;;
1400;SDS011;46518;48.842;8.926;2022-11-30T12:37:30;19.42;;;13.95;;
1400;SDS011;46518;48.842;8.926;2022-11-30T12:40:16;22.85;;;13.77;;
1400;SDS011;46518;48.842;8.926;2022-11-30T12:42:58;19.17;;;13.85;;
1400;SDS011;46518;48.842;8.926;2022-11-30T12:45:39;20.88;;;13.45;;
1400;SDS011;46518;48.842;8.926;2022-11-30T12:48:13;18.95;;;12.50;;
1400;SDS011;46518;48.842;8.926;2022-11-30T12:50:53;17.20;;;11.52;;
1400;SDS011;46518;48.842;8.926;2022-11-30T12:53:31;21.38;;;12.35;;
1400;SDS011;46518;48.842;8.926;2022-11-30T12:56:10;19.33;;;11.73;;
1400;SDS011;46518;48.842;8.926;2022-11-30T12:58:52;17.58;;;12.10;;
1400;SDS011;46518;48.842;8.926;2022-11-30T13:01:32;19.60;;;13.20;;
1400;SDS011;46518;48.842;8.926;2022-11-30T13:04:13;18.65;;;12.60;;
1400;SDS011;46518;48.842;8.926;2022-11-30T13:06:49;16.52;;;11.63;;
1400;SDS011;46518;48.842;8.926;2022-11-30T13:09:22;20.92;;;12.88;;
1400;SDS011;46518;48.842;8.926;2022-11-30T13:11:55;16.65;;;11.55;;
1400;SDS011;46518;48.842;8.926;2022-11-30T13:14:33;19.73;;;13.18;;
1400;SDS011;46518;48.842;8.926;2022-11-30T13:17:03;20.52;;;13.30;;
1400;SDS011;46518;48.842;8.926;2022-11-30T13:19:43;16.88;;;11.88;;
1400;SDS011;46518;48.842;8.926;2022-11-30T13:22:22;16.52;;;12.27;;
1400;SDS011;46518;48.842;8.926;2022-11-30T13:24:59;17.58;;;11.88;;
1400;SDS011;46518;48.842;8.926;2022-11-30T13:27:37;18.65;;;11.70;;
1400;SDS011;46518;48.842;8.926;2022-11-30T13:30:26;16.63;;;11.05;;
1400;SDS011;46518;48.842;8.926;2022-11-30T13:36:12;16.55;;;10.90;;
1400;SDS011;46518;48.842;8.926;2022-11-30T13:42:13;13.60;;;10.50;;
1400;SDS011;46518;48.842;8.926;2022-11-30T13:44:53;18.70;;;12.75;;
1400;SDS011;46518;48.842;8.926;2022-11-30T13:47:27;15.23;;;11.95;;
1400;SDS011;46518;48.842;8.926;2022-11-30T13:49:57;14.65;;;10.93;;
1400;SDS011;46518;48.842;8.926;2022-11-30T13:58:33;18.38;;;12.05;;
1400;SDS011;46518;48.842;8.926;2022-11-30T14:06:59;18.98;;;11.57;;
1400;SDS011;46518;48.842;8.926;2022-11-30T14:37:17;23.25;;;14.55;;
1400;SDS011;46518;48.842;8.926;2022-11-30T14:39:49;21.70;;;15.60;;
1400;SDS011;46518;48.842;8.926;2022-11-30T14:42:20;22.92;;;17.70;;
1400;SDS011;46518;48.842;8.926;2022-11-30T14:44:50;21.25;;;15.45;;
1400;SDS011;46518;48.842;8.926;2022-11-30T14:47:21;23.63;;;17.38;;
1400;SDS011;46518;48.842;8.926;2022-11-30T14:49:52;23.90;;;17.38;;
1400;SDS011;46518;48.842;8.926;2022-11-30T14:52:31;22.70;;;15.55;;
1400;SDS011;46518;48.842;8.926;2022-11-30T14:55:10;24.08;;;16.55;;
1400;SDS011;46518;48.842;8.926;2022-11-30T14:57:48;21.52;;;16.25;;
1400;SDS011;46518;48.842;8.926;2022-11-30T15:00:34;23.70;;;15.77;;
1400;SDS011;46518;48.842;8.926;2022-11-30T15:03:04;29.10;;;18.35;;
1400;SDS011;46518;48.842;8.926;2022-11-30T15:05:44;25.10;;;17.60;;
1400;SDS011;46518;48.842;8.926;2022-11-30T15:08:15;30.33;;;19.63;;
1400;SDS011;46518;48.842;8.926;2022-11-30T15:10:44;29.35;;;20.85;;
1400;SDS011;46518;48.842;8.926;2022-11-30T15:13:14;25.02;;;17.63;;
1400;SDS011;46518;48.842;8.926;2022-11-30T15:15:50;21.40;;;16.13;;
1400;SDS011;46518;48.842;8.926;2022-11-30T15:18:21;23.48;;;15.63;;
1400;SDS011;46518;48.842;8.926;2022-11-30T15:20:53;27.73;;;18.13;;
1400;SDS011;46518;48.842;8.926;2022-11-30T15:23:28;29.90;;;18.40;;
1400;SDS011;46518;48.842;8.926;2022-11-30T15:25:58;21.17;;;15.68;;
1400;SDS011;46518;48.842;8.926;2022-11-30T15:28:32;23.35;;;15.38;;
1400;SDS011;46518;48.842;8.926;2022-11-30T15:31:06;20.60;;;16.20;;
1400;SDS011;46518;48.842;8.926;2022-11-30T15:33:39;23.48;;;18.00;;
1400;SDS011;46518;48.842;8.926;2022-11-30T15:36:09;26.95;;;18.90;;
1400;SDS011;46518;48.842;8.926;2022-11-30T15:39:25;28.80;;;19.48;;
1400;SDS011;46518;48.842;8.926;2022-11-30T15:41:56;30.15;;;19.60;;
1400;SDS011;46518;48.842;8.926;2022-11-30T15:44:37;28.77;;;19.15;;
1400;SDS011;46518;48.842;8.926;2022-11-30T15:47:14;27.35;;;19.92;;
1400;SDS011;46518;48.842;8.926;2022-11-30T15:49:51;33.00;;;21.40;;
1400;SDS011;46518;48.842;8.926;2022-11-30T15:52:24;26.77;;;18.70;;
1400;SDS011;46518;48.842;8.926;2022-11-30T15:54:55;23.45;;;17.83;;
1400;SDS011;46518;48.842;8.926;2022-11-30T15:57:25;28.58;;;18.63;;
1400;SDS011;46518;48.842;8.926;2022-11-30T16:00:18;29.92;;;20.02;;
1400;SDS011;46518;48.842;8.926;2022-11-30T16:02:47;30.15;;;19.88;;
1400;SDS011;46518;48.842;8.926;2022-11-30T16:05:25;31.02;;;22.50;;
1400;SDS011;46518;48.842;8.926;2022-11-30T16:07:54;27.27;;;19.95;;
1400;SDS011;46518;48.842;8.926;2022-11-30T16:10:27;28.48;;;19.50;;
1400;SDS011;46518;48.842;8.926;2022-11-30T16:12:59;28.63;;;22.13;;
1400;SDS011;46518;48.842;8.926;2022-11-30T16:15:30;27.23;;;20.13;;
1400;SDS011;46518;48.842;8.926;2022-11-30T16:18:04;28.98;;;22.27;;
1400;SDS011;46518;48.842;8.926;2022-11-30T16:20:40;28.27;;;19.27;;